^^
Meteo Knjazevac Station Historical Data
Daily Summary for March 1, 2022 Units:  Both    English   Metric
Daily Weekly Monthly Yearly Custom
  High: Low: Average:
Temperature: 85.3 °F /  29.6 °C 53.6 °F /  12 °C 70.1 °F /  21.2 °C
Dew Point: 62.7 °F /  17.1 °C 52.7 °F /  11.5 °C 57.7 °F /  14.3 °C
Humidity: 99% 37% 69%
Wind Speed: 10mph /  16.1km/h - 3.1mph /  5km/h
Wind Gust: 22mph /  35.4km/h - -
Wind- - West
Pressure: 30.03 in /  1016.8 hPa 29.95 in /  1014.1 hPa -
Precipitation: 0.00 in /  0 mm    
Historical Graphs
 
 
Tabular Data for March 1, 2022
Time Temperature Dew Point Pressure Wind Wind Speed Wind Gust Humidity Rainfall Rate (Hourly) solar Conditions
00:00 61 °F /  16.1 °C 58 °F /  14.4 °C 30.03in /  1016.8hPa WNW 1mph /  1.6km/h 3mph /  4.8km/h 90% 0.00in /  0mm 0 W/m2
00:10 60.6 °F /  15.9 °C 58 °F /  14.4 °C 30.03in /  1016.8hPa Calm   2mph /  3.2km/h 91% 0.00in /  0mm 0 W/m2
00:20 60.4 °F /  15.8 °C 57.8 °F /  14.3 °C 30.03in /  1016.8hPa Calm   3mph /  4.8km/h 91% 0.00in /  0mm 0 W/m2
00:30 60.1 °F /  15.6 °C 57.4 °F /  14.1 °C 30.03in /  1016.8hPa Calm   1mph /  1.6km/h 91% 0.00in /  0mm 0 W/m2
00:50 59.4 °F /  15.2 °C 57.4 °F /  14.1 °C 30.02in /  1016.5hPa Calm   2mph /  3.2km/h 93% 0.00in /  0mm 0 W/m2
01:00 59 °F /  15 °C 57.3 °F /  14.1 °C 30.03in /  1016.8hPa North 1mph /  1.6km/h 2mph /  3.2km/h 94% 0.00in /  0mm 0 W/m2
01:10 58.6 °F /  14.8 °C 56.9 °F /  13.8 °C 30.02in /  1016.5hPa West 1mph /  1.6km/h 2mph /  3.2km/h 94% 0.00in /  0mm 0 W/m2
01:20 58.3 °F /  14.6 °C 56.6 °F /  13.7 °C 30.02in /  1016.5hPa West 1mph /  1.6km/h 2mph /  3.2km/h 94% 0.00in /  0mm 0 W/m2
01:30 57.9 °F /  14.4 °C 56.2 °F /  13.4 °C 30.02in /  1016.5hPa Calm   2mph /  3.2km/h 94% 0.00in /  0mm 0 W/m2
01:40 57.8 °F /  14.3 °C 56.3 °F /  13.5 °C 30.02in /  1016.5hPa Calm   1mph /  1.6km/h 95% 0.00in /  0mm 0 W/m2
01:50 57.7 °F /  14.3 °C 56 °F /  13.3 °C 30.02in /  1016.5hPa Calm   2mph /  3.2km/h 94% 0.00in /  0mm 0 W/m2
02:00 57.6 °F /  14.2 °C 56.1 °F /  13.4 °C 30.02in /  1016.5hPa Calm   2mph /  3.2km/h 95% 0.00in /  0mm 0 W/m2
02:10 57.4 °F /  14.1 °C 56 °F /  13.3 °C 30.02in /  1016.5hPa Calm   2mph /  3.2km/h 95% 0.00in /  0mm 0 W/m2
02:20 57 °F /  13.9 °C 55.6 °F /  13.1 °C 30.02in /  1016.5hPa NW 1mph /  1.6km/h 3mph /  4.8km/h 95% 0.00in /  0mm 0 W/m2
02:30 56.8 °F /  13.8 °C 55.4 °F /  13 °C 30.02in /  1016.5hPa WNW 1mph /  1.6km/h 3mph /  4.8km/h 95% 0.00in /  0mm 0 W/m2
02:40 56.8 °F /  13.8 °C 55.4 °F /  13 °C 30.02in /  1016.5hPa Calm   3mph /  4.8km/h 95% 0.00in /  0mm 0 W/m2
03:10 56.3 °F /  13.5 °C 54.9 °F /  12.7 °C 30.02in /  1016.5hPa Calm   2mph /  3.2km/h 95% 0.00in /  0mm 0 W/m2
03:20 56.3 °F /  13.5 °C 55.2 °F /  12.9 °C 30.02in /  1016.5hPa NE 2mph /  3.2km/h 3mph /  4.8km/h 96% 0.00in /  0mm 0 W/m2
03:40 56.1 °F /  13.4 °C 55 °F /  12.8 °C 30.02in /  1016.5hPa Calm   2mph /  3.2km/h 96% 0.00in /  0mm 0 W/m2
03:50 56.1 °F /  13.4 °C 54.7 °F /  12.6 °C 30.02in /  1016.5hPa NNW 1mph /  1.6km/h 3mph /  4.8km/h 95% 0.00in /  0mm 0 W/m2
04:00 55.8 °F /  13.2 °C 54.4 °F /  12.4 °C 30.02in /  1016.5hPa West 1mph /  1.6km/h 2mph /  3.2km/h 95% 0.00in /  0mm 0 W/m2
04:10 55.2 °F /  12.9 °C 53.5 °F /  11.9 °C 30.02in /  1016.5hPa WSW 1mph /  1.6km/h 3mph /  4.8km/h 94% 0.00in /  0mm 0 W/m2
04:20 55 °F /  12.8 °C 53.9 °F /  12.2 °C 30.02in /  1016.5hPa North 2mph /  3.2km/h 3mph /  4.8km/h 96% 0.00in /  0mm 0 W/m2
04:40 54.7 °F /  12.6 °C 53.3 °F /  11.8 °C 30.01in /  1016.1hPa WNW 1mph /  1.6km/h 3mph /  4.8km/h 95% 0.00in /  0mm 0 W/m2
05:00 54.3 °F /  12.4 °C 53.2 °F /  11.8 °C 30.02in /  1016.5hPa WNW 2mph /  3.2km/h 5mph /  8km/h 96% 0.00in /  0mm 0 W/m2
05:10 54.5 °F /  12.5 °C 53.4 °F /  11.9 °C 30.02in /  1016.5hPa WNW 1mph /  1.6km/h 3mph /  4.8km/h 96% 0.00in /  0mm 0 W/m2
05:20 54.5 °F /  12.5 °C 53.4 °F /  11.9 °C 30.02in /  1016.5hPa Calm   3mph /  4.8km/h 96% 0.00in /  0mm 4 W/m2
05:30 54.1 °F /  12.3 °C 53 °F /  11.7 °C 30.01in /  1016.1hPa West 1mph /  1.6km/h 2mph /  3.2km/h 96% 0.00in /  0mm 9 W/m2
05:40 53.8 °F /  12.1 °C 52.7 °F /  11.5 °C 30.02in /  1016.5hPa West 1mph /  1.6km/h 2mph /  3.2km/h 96% 0.00in /  0mm 17 W/m2
05:50 53.6 °F /  12 °C 53 °F /  11.7 °C 30.02in /  1016.5hPa WNW 2mph /  3.2km/h 3mph /  4.8km/h 98% 0.00in /  0mm 25 W/m2
06:00 53.8 °F /  12.1 °C 53.2 °F /  11.8 °C 30.02in /  1016.5hPa Calm   3mph /  4.8km/h 98% 0.00in /  0mm 36 W/m2
06:20 54 °F /  12.2 °C 53.4 °F /  11.9 °C 30.02in /  1016.5hPa Calm   2mph /  3.2km/h 98% 0.00in /  0mm 83 W/m2
06:30 54.5 °F /  12.5 °C 54.2 °F /  12.3 °C 30.02in /  1016.5hPa North 2mph /  3.2km/h 5mph /  8km/h 99% 0.00in /  0mm 108 W/m2
06:40 55 °F /  12.8 °C 54.5 °F /  12.5 °C 30.03in /  1016.8hPa WNW 1mph /  1.6km/h 3mph /  4.8km/h 98% 0.00in /  0mm 147 W/m2
06:50 55.2 °F /  12.9 °C 54.7 °F /  12.6 °C 30.02in /  1016.5hPa Calm   2mph /  3.2km/h 98% 0.00in /  0mm 196 W/m2
07:00 55.9 °F /  13.3 °C 55.7 °F /  13.2 °C 30.02in /  1016.5hPa Calm   2mph /  3.2km/h 99% 0.00in /  0mm 223 W/m2
07:20 58.5 °F /  14.7 °C 56.7 °F /  13.7 °C 30.02in /  1016.5hPa NW 1mph /  1.6km/h 3mph /  4.8km/h 94% 0.00in /  0mm 290 W/m2
07:30 59.7 °F /  15.4 °C 57.7 °F /  14.3 °C 30.02in /  1016.5hPa NNE 2mph /  3.2km/h 3mph /  4.8km/h 93% 0.00in /  0mm 336 W/m2
07:40 61.2 °F /  16.2 °C 58.2 °F /  14.6 °C 30.02in /  1016.5hPa Calm   5mph /  8km/h 90% 0.00in /  0mm 367 W/m2
08:00 64.2 °F /  17.9 °C 59.3 °F /  15.2 °C 30.02in /  1016.5hPa East 2mph /  3.2km/h 5mph /  8km/h 84% 0.00in /  0mm 405 W/m2
08:10 65.7 °F /  18.7 °C 59.3 °F /  15.2 °C 30.02in /  1016.5hPa East 3mph /  4.8km/h 8mph /  12.9km/h 80% 0.00in /  0mm 440 W/m2
08:20 66.8 °F /  19.3 °C 59.7 °F /  15.4 °C 30.02in /  1016.5hPa ESE 3mph /  4.8km/h 7mph /  11.3km/h 78% 0.00in /  0mm 479 W/m2
08:30 68.2 °F /  20.1 °C 60 °F /  15.6 °C 30.02in /  1016.5hPa SSE 2mph /  3.2km/h 5mph /  8km/h 75% 0.00in /  0mm 510 W/m2
08:50 71.8 °F /  22.1 °C 61.1 °F /  16.2 °C 30.01in /  1016.1hPa WSW 3mph /  4.8km/h 6mph /  9.7km/h 69% 0.00in /  0mm 573 W/m2
09:00 72.7 °F /  22.6 °C 59.4 °F /  15.2 °C 30.01in /  1016.1hPa NW 6mph /  9.7km/h 12mph /  19.3km/h 63% 0.00in /  0mm 604 W/m2
09:20 74.1 °F /  23.4 °C 58.4 °F /  14.7 °C 30.01in /  1016.1hPa WSW 7mph /  11.3km/h 13mph /  20.9km/h 58% 0.00in /  0mm 659 W/m2
09:30 74.7 °F /  23.7 °C 57.4 °F /  14.1 °C 30.01in /  1016.1hPa WSW 8mph /  12.9km/h 17mph /  27.4km/h 55% 0.00in /  0mm 685 W/m2
09:40 75 °F /  23.9 °C 57.2 °F /  14 °C 30.01in /  1016.1hPa WSW 8mph /  12.9km/h 16mph /  25.7km/h 54% 0.00in /  0mm 573 W/m2
09:50 74.1 °F /  23.4 °C 56.9 °F /  13.8 °C 30.01in /  1016.1hPa WSW 10mph /  16.1km/h 22mph /  35.4km/h 55% 0.00in /  0mm 213 W/m2
10:00 69.2 °F /  20.7 °C 58.5 °F /  14.7 °C 30.02in /  1016.5hPa SW 5mph /  8km/h 16mph /  25.7km/h 70% 0.00in /  0mm 672 W/m2
10:10 74.9 °F /  23.8 °C 58.6 °F /  14.8 °C 30.01in /  1016.1hPa WSW 7mph /  11.3km/h 15mph /  24.1km/h 57% 0.00in /  0mm 777 W/m2
10:20 66.9 °F /  19.4 °C 59.8 °F /  15.4 °C 30.02in /  1016.5hPa Calm   6mph /  9.7km/h 78% 0.00in /  0mm 483 W/m2
10:40 73.5 °F /  23.1 °C 60.6 °F /  15.9 °C 30.02in /  1016.5hPa WNW 5.5mph /  8.9km/h 20mph /  32.2km/h 64.5% 0.00in /  0mm 545 W/m2
10:50 75.8 °F /  24.3 °C 59.4 °F /  15.2 °C 30.01in /  1016.1hPa West 8mph /  12.9km/h 13mph /  20.9km/h 57% 0.00in /  0mm 262 W/m2
11:00 77.2 °F /  25.1 °C 60.8 °F /  16 °C 30.01in /  1016.1hPa West 6mph /  9.7km/h 15mph /  24.1km/h 57% 0.00in /  0mm 865 W/m2
11:10 78.1 °F /  25.6 °C 60.1 °F /  15.6 °C 30.01in /  1016.1hPa WSW 9mph /  14.5km/h 17mph /  27.4km/h 54% 0.00in /  0mm 878 W/m2
11:20 78.6 °F /  25.9 °C 61.1 °F /  16.2 °C 30.00in /  1015.8hPa West 7mph /  11.3km/h 17mph /  27.4km/h 55% 0.00in /  0mm 434 W/m2
11:30 79.2 °F /  26.2 °C 61.1 °F /  16.2 °C 29.99in /  1015.5hPa West 3mph /  4.8km/h 12mph /  19.3km/h 54% 0.00in /  0mm 711 W/m2
11:40 79 °F /  26.1 °C 60.9 °F /  16.1 °C 29.99in /  1015.5hPa WNW 5mph /  8km/h 11mph /  17.7km/h 54% 0.00in /  0mm 911 W/m2
11:50 79.4 °F /  26.3 °C 61.3 °F /  16.3 °C 29.99in /  1015.5hPa West 6mph /  9.7km/h 14mph /  22.5km/h 54% 0.00in /  0mm 918 W/m2
12:00 79.2 °F /  26.2 °C 60.6 °F /  15.9 °C 29.99in /  1015.5hPa West 7mph /  11.3km/h 13mph /  20.9km/h 53% 0.00in /  0mm 924 W/m2
12:10 79.9 °F /  26.6 °C 60.7 °F /  15.9 °C 29.99in /  1015.5hPa WSW 3mph /  4.8km/h 13mph /  20.9km/h 52% 0.00in /  0mm 202 W/m2
12:30 81.3 °F /  27.4 °C 62 °F /  16.7 °C 29.99in /  1015.5hPa NW 5mph /  8km/h 10mph /  16.1km/h 52% 0.00in /  0mm 677 W/m2
12:40 81.3 °F /  27.4 °C 60.9 °F /  16.1 °C 29.98in /  1015.1hPa NW 6mph /  9.7km/h 10mph /  16.1km/h 50% 0.00in /  0mm 567 W/m2
12:50 82.1 °F /  27.8 °C 62.7 °F /  17.1 °C 29.98in /  1015.1hPa West 3mph /  4.8km/h 12mph /  19.3km/h 52% 0.00in /  0mm 932 W/m2
13:10 82.2 °F /  27.9 °C 61.2 °F /  16.2 °C 29.98in /  1015.1hPa WNW 8mph /  12.9km/h 18mph /  29km/h 49% 0.00in /  0mm 924 W/m2
13:20 82.4 °F /  28 °C 61.3 °F /  16.3 °C 29.98in /  1015.1hPa WNW 8mph /  12.9km/h 16mph /  25.7km/h 49% 0.00in /  0mm 769 W/m2
13:30 81.9 °F /  27.7 °C 61.4 °F /  16.3 °C 29.97in /  1014.8hPa West 7mph /  11.3km/h 13mph /  20.9km/h 50% 0.00in /  0mm 718 W/m2
14:00 70.7 °F /  21.5 °C 61.2 °F /  16.2 °C 30.02in /  1016.5hPa West 3mph /  4.8km/h 9mph /  14.5km/h 72% 0.00in /  0mm 878 W/m2
14:10 83.8 °F /  28.8 °C 60.2 °F /  15.7 °C 29.97in /  1014.8hPa NW 6mph /  9.7km/h 14mph /  22.5km/h 45% 0.00in /  0mm 865 W/m2
14:20 83.8 °F /  28.8 °C 59.6 °F /  15.3 °C 29.96in /  1014.4hPa NW 7mph /  11.3km/h 14mph /  22.5km/h 44% 0.00in /  0mm 850 W/m2
14:30 84.4 °F /  29.1 °C 60.1 °F /  15.6 °C 29.96in /  1014.4hPa NNW 3mph /  4.8km/h 13mph /  20.9km/h 44% 0.00in /  0mm 788 W/m2
14:40 84.3 °F /  29.1 °C 57.4 °F /  14.1 °C 29.96in /  1014.4hPa NNW 6mph /  9.7km/h 13mph /  20.9km/h 40% 0.00in /  0mm 797 W/m2
14:50 84 °F /  28.9 °C 57.1 °F /  13.9 °C 29.96in /  1014.4hPa NNW 5mph /  8km/h 13mph /  20.9km/h 40% 0.00in /  0mm 797 W/m2
15:00 84.6 °F /  29.2 °C 56.9 °F /  13.8 °C 29.96in /  1014.4hPa NNW 7mph /  11.3km/h 15mph /  24.1km/h 39% 0.00in /  0mm 776 W/m2
15:10 84.9 °F /  29.4 °C 55.7 °F /  13.2 °C 29.96in /  1014.4hPa NNW 8mph /  12.9km/h 18mph /  29km/h 37% 0.00in /  0mm 755 W/m2
15:20 84.7 °F /  29.3 °C 55.6 °F /  13.1 °C 29.96in /  1014.4hPa NNW 9mph /  14.5km/h 16mph /  25.7km/h 37% 0.00in /  0mm 732 W/m2
15:30 84.7 °F /  29.3 °C 56.3 °F /  13.5 °C 29.96in /  1014.4hPa NNW 5mph /  8km/h 15mph /  24.1km/h 38% 0.00in /  0mm 709 W/m2
15:40 85.1 °F /  29.5 °C 57.4 °F /  14.1 °C 29.95in /  1014.1hPa NNW 2mph /  3.2km/h 12mph /  19.3km/h 39% 0.00in /  0mm 684 W/m2
15:50 84.9 °F /  29.4 °C 56.5 °F /  13.6 °C 29.95in /  1014.1hPa NNW 7mph /  11.3km/h 15mph /  24.1km/h 38% 0.00in /  0mm 659 W/m2
16:00 85.3 °F /  29.6 °C 58.2 °F /  14.6 °C 29.95in /  1014.1hPa NW 3mph /  4.8km/h 13mph /  20.9km/h 40% 0.00in /  0mm 632 W/m2
16:10 85.3 °F /  29.6 °C 57.5 °F /  14.2 °C 29.95in /  1014.1hPa WNW 7mph /  11.3km/h 13mph /  20.9km/h 39% 0.00in /  0mm 605 W/m2
16:20 85.1 °F /  29.5 °C 59.4 °F /  15.2 °C 29.95in /  1014.1hPa WNW 6mph /  9.7km/h 17mph /  27.4km/h 42% 0.00in /  0mm 577 W/m2
16:30 85.1 °F /  29.5 °C 59.5 °F /  15.3 °C 29.96in /  1014.4hPa WNW 5mph /  8km/h 13mph /  20.9km/h 42% 0.00in /  0mm 548 W/m2
16:40 85.3 °F /  29.6 °C 58.2 °F /  14.6 °C 29.95in /  1014.1hPa West 7mph /  11.3km/h 16mph /  25.7km/h 40% 0.00in /  0mm 519 W/m2
17:00 84.9 °F /  29.4 °C 57.9 °F /  14.4 °C 29.96in /  1014.4hPa NW 8mph /  12.9km/h 15mph /  24.1km/h 40% 0.00in /  0mm 458 W/m2
17:10 84.9 °F /  29.4 °C 59.3 °F /  15.2 °C 29.96in /  1014.4hPa WNW 8mph /  12.9km/h 14mph /  22.5km/h 42% 0.00in /  0mm 428 W/m2
17:20 84.7 °F /  29.3 °C 58.4 °F /  14.7 °C 29.96in /  1014.4hPa NW 9mph /  14.5km/h 14mph /  22.5km/h 41% 0.00in /  0mm 397 W/m2
17:30 84.7 °F /  29.3 °C 59.1 °F /  15.1 °C 29.96in /  1014.4hPa NW 6mph /  9.7km/h 13mph /  20.9km/h 42% 0.00in /  0mm 366 W/m2
17:40 84.7 °F /  29.3 °C 59.8 °F /  15.4 °C 29.96in /  1014.4hPa NNW 7mph /  11.3km/h 12mph /  19.3km/h 43% 0.00in /  0mm 335 W/m2
17:50 84.7 °F /  29.3 °C 59.1 °F /  15.1 °C 29.96in /  1014.4hPa WNW 5mph /  8km/h 14mph /  22.5km/h 42% 0.00in /  0mm 304 W/m2
18:10 84.2 °F /  29 °C 59.3 °F /  15.2 °C 29.96in /  1014.4hPa NW 6mph /  9.7km/h 10mph /  16.1km/h 43% 0.00in /  0mm 244 W/m2
18:20 84.1 °F /  28.9 °C 59.8 °F /  15.4 °C 29.96in /  1014.4hPa NW 1mph /  1.6km/h 12mph /  19.3km/h 44% 0.00in /  0mm 214 W/m2
18:40 83.5 °F /  28.6 °C 59.3 °F /  15.2 °C 29.96in /  1014.4hPa North 6mph /  9.7km/h 10mph /  16.1km/h 44% 0.00in /  0mm 152 W/m2
19:00 81.9 °F /  27.7 °C 58.4 °F /  14.7 °C 29.96in /  1014.4hPa North 3mph /  4.8km/h 10mph /  16.1km/h 45% 0.00in /  0mm 82 W/m2
19:10 81.3 °F /  27.4 °C 58.6 °F /  14.8 °C 29.97in /  1014.8hPa North 2mph /  3.2km/h 7mph /  11.3km/h 46% 0.00in /  0mm 58 W/m2
19:20 80.5 °F /  26.9 °C 58.5 °F /  14.7 °C 29.97in /  1014.8hPa North 2mph /  3.2km/h 7mph /  11.3km/h 47% 0.00in /  0mm 42 W/m2
19:30 79.7 °F /  26.5 °C 57.7 °F /  14.3 °C 29.97in /  1014.8hPa North 3mph /  4.8km/h 6mph /  9.7km/h 47% 0.00in /  0mm 27 W/m2
19:40 78.9 °F /  26.1 °C 58.7 °F /  14.8 °C 29.97in /  1014.8hPa NNW 2mph /  3.2km/h 5mph /  8km/h 50% 0.00in /  0mm 15 W/m2
20:10 76.4 °F /  24.7 °C 58 °F /  14.4 °C 29.98in /  1015.1hPa NW 2mph /  3.2km/h 4mph /  6.4km/h 53% 0.00in /  0mm 0 W/m2
20:30 74.4 °F /  23.6 °C 58.7 °F /  14.8 °C 29.98in /  1015.1hPa WSW 2mph /  3.2km/h 3mph /  4.8km/h 58% 0.00in /  0mm 0 W/m2
20:50 71.8 °F /  22.1 °C 58.5 °F /  14.7 °C 29.99in /  1015.5hPa SW 1mph /  1.6km/h 3mph /  4.8km/h 63% 0.00in /  0mm 0 W/m2
21:00 71.2 °F /  21.8 °C 58.4 °F /  14.7 °C 29.99in /  1015.5hPa West 2mph /  3.2km/h 4mph /  6.4km/h 64% 0.00in /  0mm 0 W/m2
21:10 70.5 °F /  21.4 °C 58.6 °F /  14.8 °C 30.00in /  1015.8hPa WSW 1mph /  1.6km/h 4mph /  6.4km/h 66% 0.00in /  0mm 0 W/m2
21:20 69.6 °F /  20.9 °C 59 °F /  15 °C 30.00in /  1015.8hPa SW 1mph /  1.6km/h 3mph /  4.8km/h 69% 0.00in /  0mm 0 W/m2
21:30 68.8 °F /  20.4 °C 58.3 °F /  14.6 °C 30.00in /  1015.8hPa West 2mph /  3.2km/h 4mph /  6.4km/h 69% 0.00in /  0mm 0 W/m2
21:40 67.8 °F /  19.9 °C 58.4 °F /  14.7 °C 30.01in /  1016.1hPa SW 1mph /  1.6km/h 3mph /  4.8km/h 72% 0.00in /  0mm 0 W/m2
21:50 67 °F /  19.4 °C 57.7 °F /  14.3 °C 30.01in /  1016.1hPa WSW 1mph /  1.6km/h 2mph /  3.2km/h 72% 0.00in /  0mm 0 W/m2
22:10 66 °F /  18.9 °C 57.5 °F /  14.2 °C 30.01in /  1016.1hPa Calm   2mph /  3.2km/h 74% 0.00in /  0mm 0 W/m2
22:20 65.4 °F /  18.6 °C 58 °F /  14.4 °C 30.01in /  1016.1hPa WSW 1mph /  1.6km/h 2mph /  3.2km/h 77% 0.00in /  0mm 0 W/m2
22:30 64.6 °F /  18.1 °C 57.6 °F /  14.2 °C 30.01in /  1016.1hPa Calm   3mph /  4.8km/h 78% 0.00in /  0mm 0 W/m2
22:40 64.3 °F /  17.9 °C 57.7 °F /  14.3 °C 30.01in /  1016.1hPa Calm   2mph /  3.2km/h 79% 0.00in /  0mm 0 W/m2
22:50 63.8 °F /  17.7 °C 57.2 °F /  14 °C 30.01in /  1016.1hPa West 1mph /  1.6km/h 2mph /  3.2km/h 79% 0.00in /  0mm 0 W/m2
23:00 63.3 °F /  17.4 °C 57 °F /  13.9 °C 30.01in /  1016.1hPa WSW 1mph /  1.6km/h 2mph /  3.2km/h 80% 0.00in /  0mm 0 W/m2
23:10 63 °F /  17.2 °C 56.7 °F /  13.7 °C 30.01in /  1016.1hPa Calm   4mph /  6.4km/h 80% 0.00in /  0mm 0 W/m2
23:20 62.8 °F /  17.1 °C 56.5 °F /  13.6 °C 30.01in /  1016.1hPa Calm   2mph /  3.2km/h 80% 0.00in /  0mm 0 W/m2
23:30 62.4 °F /  16.9 °C 56.2 °F /  13.4 °C 30.01in /  1016.1hPa Calm   2mph /  3.2km/h 80% 0.00in /  0mm 0 W/m2
23:40 61.8 °F /  16.6 °C 55.9 °F /  13.3 °C 30.01in /  1016.1hPa Calm   1mph /  1.6km/h 81% 0.00in /  0mm 0 W/m2
Knjazevac, Serbia
Compliments of Weather Underground - 2 mb